Abbie & Holly — WDD2228 — position and weather

sailwx.info

Track history (hours):
 
Tides and Currents Weather Stations Pressure Air Temp Water Temp Dewpoint Dewpoint Depression Visibility Wind Speed Wind Dir Waves Ship Positions

Abbie & Holly

Owner: Brewster Fishing Inc., Forked River, NJ. More information available from US FCC via Universal Licensing System and Coast Guard Vessel Documentation Center.

Last reported at 2018-Jul-18 04:59 UTC. Time now 2018-Jul-18 05:10 UTC.
Position N 39°45' W 074°07'.

Length 18 m.

Type: Fishing. MMSI: 367112630.

Date/timePositionNaut miles runAvg speedWind from/ knotsBaromVisibWave heightAir tempDewpointWater temp
2018-Jul-18 04:59N 39°45' W 074°07'0 0.0
2018-Jul-18 03:29N 39°45' W 074°07'0 0.0
2018-Jul-17 23:41N 39°45' W 074°07'0 0.0
2018-Jul-17 06:50N 39°45' W 074°07'0 0.0
2018-Jul-16 22:56N 39°45' W 074°07'0 0.0
2018-Jul-16 11:30N 39°45' W 074°07'0 0.0
2018-Jul-15 23:09N 39°45' W 074°07'0 0.0
2018-Jul-15 22:45N 39°45' W 074°07'0 0.0
2018-Jul-15 17:06N 39°45' W 074°07'0 0.0
2018-Jul-15 13:09N 39°45' W 074°07'0 0.0
2018-Jul-15 13:00N 39°45' W 074°07'1 0.1
2018-Jul-15 03:06N 39°46' W 074°07'1 7.3
2018-Jul-15 02:58N 39°46' W 074°05'38 2.1
2018-Jul-14 09:10N 39°41' W 073°16'3 8.6
2018-Jul-14 08:50N 39°41' W 073°20'3 8.7
2018-Jul-14 08:30N 39°42' W 073°24'4 8.8
2018-Jul-14 08:00N 39°42' W 073°30'6 9.0
2018-Jul-14 07:23N 39°43' W 073°37'3 9.1
2018-Jul-14 07:00N 39°44' W 073°41'5 9.2
2018-Jul-14 06:29N 39°44' W 073°47'5 9.3
2018-Jul-14 05:59N 39°45' W 073°53'5 9.1
2018-Jul-14 05:29N 39°45' W 073°59'4 9.1
2018-Jul-14 05:00N 39°46' W 074°05'2 0.2
2018-Jul-13 22:16N 39°45' W 074°07'0 0.0
2018-Jul-13 20:46N 39°45' W 074°07'0 0.0
2018-Jul-13 19:40N 39°45' W 074°07'0 0.0
2018-Jul-13 12:31N 39°45' W 074°07'0 0.0
2018-Jul-13 12:28N 39°45' W 074°07'0 0.0
2018-Jul-13 11:55N 39°45' W 074°07'0 0.0
2018-Jul-13 11:28N 39°45' W 074°07'0 0.0
2018-Jul-13 10:55N 39°45' W 074°07'0 0.0
2018-Jul-13 10:25N 39°45' W 074°07'0 0.0
2018-Jul-13 09:58N 39°45' W 074°07'0 0.0
2018-Jul-13 09:28N 39°45' W 074°07'0 0.0
2018-Jul-13 08:52N 39°45' W 074°07'0 0.0
2018-Jul-13 08:25N 39°45' W 074°07'0 0.0
2018-Jul-13 07:58N 39°45' W 074°07'0 0.0
2018-Jul-13 07:25N 39°45' W 074°07'0 0.0
2018-Jul-13 06:58N 39°45' W 074°07'0 0.0
2018-Jul-13 06:28N 39°45' W 074°07'0 0.0
2018-Jul-13 05:58N 39°45' W 074°07'0 0.0
2018-Jul-13 05:19N 39°45' W 074°07'0 0.0
2018-Jul-13 04:53N 39°45' W 074°07'0 0.2
2018-Jul-13 04:30N 39°45' W 074°07'3 5.3
2018-Jul-13 04:00N 39°46' W 074°04'5 8.7
2018-Jul-13 03:25N 39°45' W 073°57'4 8.7
2018-Jul-13 03:00N 39°44' W 073°53'4 8.6
2018-Jul-13 02:30N 39°43' W 073°47'4 8.5
2018-Jul-13 01:59N 39°42' W 073°41'4 8.6
2018-Jul-13 01:30N 39°41' W 073°36'15 1.1
2018-Jul-12 12:18N 39°37' W 073°17'3 9.2
2018-Jul-12 12:00N 39°38' W 073°21'20 8.8
2018-Jul-12 09:44N 39°42' W 073°46'12 8.6
2018-Jul-12 08:22N 39°45' W 074°01'4 8.6
2018-Jul-12 07:52N 39°46' W 074°06'1 0.3
2018-Jul-12 04:36N 39°45' W 074°07'0 0.0
2018-Jul-11 20:12N 39°45' W 074°07'0 0.0
2018-Jul-11 19:42N 39°45' W 074°07'0 0.0
2018-Jul-11 19:24N 39°45' W 074°07'0 0.0
2018-Jul-11 12:54N 39°45' W 074°07'0 0.0
2018-Jul-11 12:24N 39°45' W 074°07'0 0.0
2018-Jul-11 11:58N 39°45' W 074°07'0 0.0
2018-Jul-11 05:48N 39°45' W 074°07'1 3.7
2018-Jul-11 05:29N 39°46' W 074°05'3 0.2
2018-Jul-10 08:24N 39°45' W 074°01'4 7.8
2018-Jul-10 07:51N 39°46' W 074°07'0 0.7
2018-Jul-10 07:11N 39°45' W 074°07'0 0.0
2018-Jul-10 06:59N 39°45' W 074°07'0 0.0
2018-Jul-10 06:17N 39°45' W 074°07'0 0.0
2018-Jul-10 05:47N 39°45' W 074°07'0 0.0
2018-Jul-10 01:47N 39°45' W 074°07'0 0.0
2018-Jul-10 01:23N 39°45' W 074°07'0 0.0
2018-Jul-09 23:23N 39°45' W 074°07'0 0.0
2018-Jul-09 22:47N 39°45' W 074°07'0 0.0
2018-Jul-09 22:23N 39°45' W 074°07'0 0.0
2018-Jul-09 21:59N 39°45' W 074°07'0 0.0
2018-Jul-09 21:05N 39°45' W 074°07'0 0.0
2018-Jul-09 20:59N 39°45' W 074°07'0 0.0
2018-Jul-09 16:11N 39°45' W 074°07'0 0.0
2018-Jul-09 13:53N 39°45' W 074°07'0 0.0
2018-Jul-09 12:33N 39°45' W 074°07'0 0.0
2018-Jul-09 12:26N 39°45' W 074°07'0 0.0
2018-Jul-09 12:00N 39°45' W 074°07'0 0.0
2018-Jul-09 11:14N 39°45' W 074°07'0 0.0
2018-Jul-09 11:00N 39°45' W 074°07'0 0.0
2018-Jul-09 09:54N 39°45' W 074°07'0 0.0
2018-Jul-09 09:29N 39°45' W 074°07'0 0.0
2018-Jul-09 08:05N 39°45' W 074°07'0 0.0
2018-Jul-09 07:57N 39°45' W 074°07'0 0.0
2018-Jul-09 07:27N 39°45' W 074°07'0 0.6
2018-Jul-09 06:54N 39°45' W 074°07'5 0.2
2018-Jul-08 09:40N 39°45' W 074°00'4 8.5
2018-Jul-08 09:15N 39°46' W 074°05'  
Track history (hours):
 
Tides and Currents Weather Stations Pressure Air Temp Water Temp Dewpoint Dewpoint Depression Visibility Wind Speed Wind Dir Waves Ship Positions

Abbie & Holly

Owner: Brewster Fishing Inc., Forked River, NJ. More information available from US FCC via Universal Licensing System and Coast Guard Vessel Documentation Center.

Last reported at 2018-Jul-18 04:59 UTC. Time now 2018-Jul-18 05:10 UTC.
Position N 39°45' W 074°07'.

Length 18 m.

Type: Fishing. MMSI: 367112630.

Date/timePositionNaut miles runAvg speedWind from/ knotsBaromVisibWave heightAir tempDewpointWater temp
2018-Jul-18 04:59N 39°45' W 074°07'0 0.0
2018-Jul-18 03:29N 39°45' W 074°07'0 0.0
2018-Jul-17 23:41N 39°45' W 074°07'0 0.0
2018-Jul-17 06:50N 39°45' W 074°07'0 0.0
2018-Jul-16 22:56N 39°45' W 074°07'0 0.0
2018-Jul-16 11:30N 39°45' W 074°07'0 0.0
2018-Jul-15 23:09N 39°45' W 074°07'0 0.0
2018-Jul-15 22:45N 39°45' W 074°07'0 0.0
2018-Jul-15 17:06N 39°45' W 074°07'0 0.0
2018-Jul-15 13:09N 39°45' W 074°07'0 0.0
2018-Jul-15 13:00N 39°45' W 074°07'1 0.1
2018-Jul-15 03:06N 39°46' W 074°07'1 7.3
2018-Jul-15 02:58N 39°46' W 074°05'38 2.1
2018-Jul-14 09:10N 39°41' W 073°16'3 8.6
2018-Jul-14 08:50N 39°41' W 073°20'3 8.7
2018-Jul-14 08:30N 39°42' W 073°24'4 8.8
2018-Jul-14 08:00N 39°42' W 073°30'6 9.0
2018-Jul-14 07:23N 39°43' W 073°37'3 9.1
2018-Jul-14 07:00N 39°44' W 073°41'5 9.2
2018-Jul-14 06:29N 39°44' W 073°47'5 9.3
2018-Jul-14 05:59N 39°45' W 073°53'5 9.1
2018-Jul-14 05:29N 39°45' W 073°59'4 9.1
2018-Jul-14 05:00N 39°46' W 074°05'2 0.2
2018-Jul-13 22:16N 39°45' W 074°07'0 0.0
2018-Jul-13 20:46N 39°45' W 074°07'0 0.0
2018-Jul-13 19:40N 39°45' W 074°07'0 0.0
2018-Jul-13 12:31N 39°45' W 074°07'0 0.0
2018-Jul-13 12:28N 39°45' W 074°07'0 0.0
2018-Jul-13 11:55N 39°45' W 074°07'0 0.0
2018-Jul-13 11:28N 39°45' W 074°07'0 0.0
2018-Jul-13 10:55N 39°45' W 074°07'0 0.0
2018-Jul-13 10:25N 39°45' W 074°07'0 0.0
2018-Jul-13 09:58N 39°45' W 074°07'0 0.0
2018-Jul-13 09:28N 39°45' W 074°07'0 0.0
2018-Jul-13 08:52N 39°45' W 074°07'0 0.0
2018-Jul-13 08:25N 39°45' W 074°07'0 0.0
2018-Jul-13 07:58N 39°45' W 074°07'0 0.0
2018-Jul-13 07:25N 39°45' W 074°07'0 0.0
2018-Jul-13 06:58N 39°45' W 074°07'0 0.0
2018-Jul-13 06:28N 39°45' W 074°07'0 0.0
2018-Jul-13 05:58N 39°45' W 074°07'0 0.0
2018-Jul-13 05:19N 39°45' W 074°07'0 0.0
2018-Jul-13 04:53N 39°45' W 074°07'0 0.2
2018-Jul-13 04:30N 39°45' W 074°07'3 5.3
2018-Jul-13 04:00N 39°46' W 074°04'5 8.7
2018-Jul-13 03:25N 39°45' W 073°57'4 8.7
2018-Jul-13 03:00N 39°44' W 073°53'4 8.6
2018-Jul-13 02:30N 39°43' W 073°47'4 8.5
2018-Jul-13 01:59N 39°42' W 073°41'4 8.6
2018-Jul-13 01:30N 39°41' W 073°36'15 1.1
2018-Jul-12 12:18N 39°37' W 073°17'3 9.2
2018-Jul-12 12:00N 39°38' W 073°21'20 8.8
2018-Jul-12 09:44N 39°42' W 073°46'12 8.6
2018-Jul-12 08:22N 39°45' W 074°01'4 8.6
2018-Jul-12 07:52N 39°46' W 074°06'1 0.3
2018-Jul-12 04:36N 39°45' W 074°07'0 0.0
2018-Jul-11 20:12N 39°45' W 074°07'0 0.0
2018-Jul-11 19:42N 39°45' W 074°07'0 0.0
2018-Jul-11 19:24N 39°45' W 074°07'0 0.0
2018-Jul-11 12:54N 39°45' W 074°07'0 0.0
2018-Jul-11 12:24N 39°45' W 074°07'0 0.0
2018-Jul-11 11:58N 39°45' W 074°07'0 0.0
2018-Jul-11 05:48N 39°45' W 074°07'1 3.7
2018-Jul-11 05:29N 39°46' W 074°05'3 0.2
2018-Jul-10 08:24N 39°45' W 074°01'4 7.8
2018-Jul-10 07:51N 39°46' W 074°07'0 0.7
2018-Jul-10 07:11N 39°45' W 074°07'0 0.0
2018-Jul-10 06:59N 39°45' W 074°07'0 0.0
2018-Jul-10 06:17N 39°45' W 074°07'0 0.0
2018-Jul-10 05:47N 39°45' W 074°07'0 0.0
2018-Jul-10 01:47N 39°45' W 074°07'0 0.0
2018-Jul-10 01:23N 39°45' W 074°07'0 0.0
2018-Jul-09 23:23N 39°45' W 074°07'0 0.0
2018-Jul-09 22:47N 39°45' W 074°07'0 0.0
2018-Jul-09 22:23N 39°45' W 074°07'0 0.0
2018-Jul-09 21:59N 39°45' W 074°07'0 0.0
2018-Jul-09 21:05N 39°45' W 074°07'0 0.0
2018-Jul-09 20:59N 39°45' W 074°07'0 0.0
2018-Jul-09 16:11N 39°45' W 074°07'0 0.0
2018-Jul-09 13:53N 39°45' W 074°07'0 0.0
2018-Jul-09 12:33N 39°45' W 074°07'0 0.0
2018-Jul-09 12:26N 39°45' W 074°07'0 0.0
2018-Jul-09 12:00N 39°45' W 074°07'0 0.0
2018-Jul-09 11:14N 39°45' W 074°07'0 0.0
2018-Jul-09 11:00N 39°45' W 074°07'0 0.0
2018-Jul-09 09:54N 39°45' W 074°07'0 0.0
2018-Jul-09 09:29N 39°45' W 074°07'0 0.0
2018-Jul-09 08:05N 39°45' W 074°07'0 0.0
2018-Jul-09 07:57N 39°45' W 074°07'0 0.0
2018-Jul-09 07:27N 39°45' W 074°07'0 0.6
2018-Jul-09 06:54N 39°45' W 074°07'5 0.2
2018-Jul-08 09:40N 39°45' W 074°00'4 8.5
2018-Jul-08 09:15N 39°46' W 074°05'  

Dump ship's entire track history